Time;durP1;ratioP1;P1;durP2;ratioP2;P2;SDS_P1;SDS_P2;PMS_P1;PMS_P2;Temp;Humidity;BMP_temperature;BMP_pressure;BME280_temperature;BME280_humidity;BME280_pressure;Samples;Min_cycle;Max_cycle;Signal;HPM_P1;HPM_P2
2022/10/17 00:02:25;;;;;;;;;;;13.00;99.90;;;;;;6153254;23;19928;-84
2022/10/17 00:04:52;;;;;;;;;;;13.00;99.90;;;;;;6153902;23;19960;-84
2022/10/17 00:07:19;;;;;;;;;;;13.00;99.90;;;;;;6153727;23;19920;-84
2022/10/17 00:09:45;;;;;;;;;;;13.00;99.90;;;;;;6153269;23;19921;-85
2022/10/17 00:12:12;;;;;;;;;;;13.00;99.90;;;;;;6153578;23;19956;-84
2022/10/17 00:14:39;;;;;;;;;;;13.00;99.90;;;;;;6153105;23;19927;-84
2022/10/17 00:17:05;;;;;;;;;;;13.10;99.90;;;;;;6153620;23;20000;-84
2022/10/17 00:19:32;;;;;;;;;;;13.00;99.90;;;;;;6153057;23;19948;-84
2022/10/17 00:21:59;;;;;;;;;;;13.00;99.90;;;;;;6153890;23;19991;-84
2022/10/17 00:24:26;;;;;;;;;;;13.10;99.90;;;;;;6153183;23;20446;-84
2022/10/17 00:26:52;;;;;;;;;;;13.10;99.90;;;;;;6153698;23;19921;-84
2022/10/17 00:29:19;;;;;;;;;;;13.10;99.90;;;;;;6153196;23;20234;-84
2022/10/17 00:31:46;;;;;;;;;;;13.10;99.90;;;;;;6152825;23;20277;-83
2022/10/17 00:34:12;;;;;;;;;;;13.10;99.90;;;;;;6153566;23;19991;-83
2022/10/17 00:36:39;;;;;;;;;;;13.10;99.90;;;;;;6152499;23;19921;-84
2022/10/17 00:39:06;;;;;;;;;;;13.10;99.90;;;;;;6153682;23;19920;-83
2022/10/17 00:41:32;;;;;;;;;;;13.10;99.90;;;;;;6152867;23;19925;-85
2022/10/17 00:44:25;;;;;;;;;;;13.10;99.90;;;;;;6153502;23;19995;-84
2022/10/17 00:46:52;;;;;;;;;;;13.10;99.90;;;;;;6130010;23;19921;-84
2022/10/17 00:49:20;;;;;;;;;;;13.10;99.90;;;;;;6153400;23;19948;-84
2022/10/17 00:51:57;;;;;;;;;;;13.00;99.90;;;;;;6153070;23;19920;-83
2022/10/17 00:54:27;;;;;;;;;;;13.00;99.90;;;;;;6153195;23;19927;-84
2022/10/17 00:56:54;;;;;;;;;;;13.00;99.90;;;;;;6152601;23;19920;-83
2022/10/17 00:59:21;;;;;;;;;;;13.00;99.90;;;;;;6154627;23;19987;-84
2022/10/17 01:01:55;;;;;;;;;;;13.00;99.90;;;;;;6158997;23;19948;-84
2022/10/17 01:04:22;;;;;;;;;;;13.10;99.90;;;;;;6163903;23;20315;-84
2022/10/17 01:06:49;;;;;;;;;;;13.10;99.90;;;;;;6166573;23;19996;-84
2022/10/17 01:09:15;;;;;;;;;;;13.10;99.90;;;;;;6158538;23;19944;-84
2022/10/17 01:11:49;;;;;;;;;;;13.10;99.90;;;;;;6160671;23;19991;-84
2022/10/17 01:14:19;;;;;;;;;;;13.10;99.90;;;;;;6161265;23;19955;-83
2022/10/17 01:16:53;;;;;;;;;;;13.10;99.90;;;;;;6159831;23;19924;-84
2022/10/17 01:19:19;;;;;;;;;;;13.10;99.90;;;;;;6163117;23;19927;-84
2022/10/17 01:21:59;;;;;;;;;;;13.10;99.90;;;;;;6166020;23;19979;-84
2022/10/17 01:24:35;;;;;;;;;;;13.20;99.90;;;;;;6161016;23;19952;-84
2022/10/17 01:27:20;;;;;;;;;;;13.10;99.90;;;;;;6160771;23;19936;-84
2022/10/17 01:29:47;;;;;;;;;;;13.20;99.90;;;;;;6153084;23;19921;-84
2022/10/17 01:32:29;;;;;;;;;;;13.20;99.90;;;;;;6153671;23;19992;-84
2022/10/17 01:34:58;;;;;;;;;;;13.20;99.90;;;;;;6152159;23;19988;-84
2022/10/17 01:37:29;;;;;;;;;;;13.20;99.90;;;;;;6153954;23;20420;-84
2022/10/17 01:40:16;;;;;;;;;;;13.20;99.90;;;;;;6153918;23;19959;-84
2022/10/17 01:42:54;;;;;;;;;;;13.20;99.90;;;;;;6146092;23;20260;-83
2022/10/17 01:45:26;;;;;;;;;;;13.20;99.90;;;;;;6152466;23;20000;-82
2022/10/17 01:47:54;;;;;;;;;;;13.10;99.90;;;;;;6153917;23;19975;-84
2022/10/17 01:50:24;;;;;;;;;;;13.20;99.90;;;;;;6156230;23;19956;-84
2022/10/17 01:52:53;;;;;;;;;;;13.20;99.90;;;;;;6155558;23;19939;-83
2022/10/17 01:55:22;;;;;;;;;;;13.20;99.90;;;;;;6156669;23;19927;-84
2022/10/17 01:57:51;;;;;;;;;;;13.30;99.90;;;;;;6162546;23;20314;-84
2022/10/17 02:00:21;;;;;;;;;;;13.30;99.90;;;;;;6162381;23;19925;-83
2022/10/17 02:02:50;;;;;;;;;;;13.40;99.90;;;;;;6171035;23;19972;-81
2022/10/17 02:05:19;;;;;;;;;;;13.40;99.90;;;;;;6165139;23;20314;-82
2022/10/17 02:07:45;;;;;;;;;;;13.50;99.90;;;;;;6163224;23;20000;-84
2022/10/17 02:10:29;;;;;;;;;;;13.50;99.90;;;;;;6165791;23;19940;-83
2022/10/17 02:13:15;;;;;;;;;;;13.50;99.90;;;;;;6173269;23;19936;-83
2022/10/17 02:16:05;;;;;;;;;;;13.50;99.90;;;;;;6164152;23;19951;-83
2022/10/17 02:18:39;;;;;;;;;;;13.60;99.90;;;;;;6157839;23;19947;-84
2022/10/17 02:21:10;;;;;;;;;;;13.70;99.90;;;;;;6165406;23;19948;-84
2022/10/17 02:23:43;;;;;;;;;;;13.70;99.90;;;;;;6162716;23;19928;-83
2022/10/17 02:26:32;;;;;;;;;;;13.70;99.90;;;;;;6161749;23;20012;-83
2022/10/17 02:29:08;;;;;;;;;;;13.70;99.90;;;;;;6161573;23;20385;-83
2022/10/17 02:31:40;;;;;;;;;;;13.70;99.90;;;;;;6163547;23;19959;-83
2022/10/17 02:34:11;;;;;;;;;;;13.70;99.90;;;;;;6159579;23;21354;-83
2022/10/17 02:36:40;;;;;;;;;;;13.70;99.90;;;;;;6165684;23;20007;-83
2022/10/17 02:39:08;;;;;;;;;;;13.70;99.90;;;;;;6169130;23;19920;-83
2022/10/17 02:41:36;;;;;;;;;;;13.70;99.90;;;;;;6168125;23;19975;-83
2022/10/17 02:44:03;;;;;;;;;;;13.60;99.90;;;;;;6161912;23;19920;-83
2022/10/17 02:46:31;;;;;;;;;;;13.50;99.90;;;;;;6155431;23;20410;-84
2022/10/17 02:49:00;;;;;;;;;;;13.50;99.90;;;;;;6154021;23;19921;-83
2022/10/17 02:51:35;;;;;;;;;;;13.50;99.90;;;;;;6155412;23;19991;-85
2022/10/17 02:54:20;;;;;;;;;;;13.50;99.90;;;;;;6153931;23;19988;-85
2022/10/17 02:56:53;;;;;;;;;;;13.50;99.90;;;;;;6153750;23;20294;-84
2022/10/17 02:59:21;;;;;;;;;;;13.50;99.90;;;;;;6130349;23;20356;-85
2022/10/17 03:01:50;;;;;;;;;;;13.40;99.90;;;;;;6129163;23;20253;-85
2022/10/17 03:04:17;;;;;;;;;;;13.40;99.90;;;;;;6130022;23;19971;-85
2022/10/17 03:06:45;;;;;;;;;;;13.30;99.90;;;;;;6129838;23;19943;-86
2022/10/17 03:09:11;;;;;;;;;;;13.40;99.90;;;;;;6129172;23;19924;-85
2022/10/17 03:11:38;;;;;;;;;;;13.30;99.90;;;;;;6130159;23;20300;-87
2022/10/17 03:14:05;;;;;;;;;;;13.30;99.90;;;;;;6128757;23;19991;-85
2022/10/17 03:16:31;;;;;;;;;;;13.30;99.90;;;;;;6129822;23;20261;-85
2022/10/17 03:18:58;;;;;;;;;;;13.20;99.90;;;;;;6128956;23;19995;-85
2022/10/17 03:21:25;;;;;;;;;;;13.10;99.90;;;;;;6129733;23;19935;-85
2022/10/17 03:23:52;;;;;;;;;;;13.20;99.90;;;;;;6153377;23;19945;-85
2022/10/17 03:26:18;;;;;;;;;;;13.10;99.90;;;;;;6129881;23;19971;-84
2022/10/17 03:28:45;;;;;;;;;;;13.20;99.90;;;;;;6129591;23;20325;-85
2022/10/17 03:31:16;;;;;;;;;;;13.20;99.90;;;;;;6130302;23;19924;-86
2022/10/17 03:33:43;;;;;;;;;;;13.20;99.90;;;;;;6129930;23;19952;-86
2022/10/17 03:36:11;;;;;;;;;;;13.20;99.90;;;;;;6128611;23;19921;-85
2022/10/17 03:38:38;;;;;;;;;;;13.20;99.90;;;;;;6129760;23;20253;-85
2022/10/17 03:41:05;;;;;;;;;;;13.20;99.90;;;;;;6128918;23;19921;-86
2022/10/17 03:43:32;;;;;;;;;;;13.20;99.90;;;;;;6129790;23;19920;-85
2022/10/17 03:45:58;;;;;;;;;;;13.20;99.90;;;;;;6154585;23;19995;-85
2022/10/17 03:48:26;;;;;;;;;;;13.20;99.90;;;;;;6129348;23;19929;-86
2022/10/17 03:51:03;;;;;;;;;;;13.10;99.90;;;;;;6128329;23;19920;-85
2022/10/17 03:53:30;;;;;;;;;;;13.10;99.90;;;;;;6129765;23;20006;-85
2022/10/17 03:55:56;;;;;;;;;;;13.10;99.90;;;;;;6154352;23;19999;-85
2022/10/17 03:58:23;;;;;;;;;;;13.10;99.90;;;;;;6148698;23;19920;-86
2022/10/17 04:00:51;;;;;;;;;;;13.00;99.90;;;;;;6154223;23;19927;-85
2022/10/17 04:03:17;;;;;;;;;;;13.10;99.90;;;;;;6153176;23;20357;-86
2022/10/17 04:05:44;;;;;;;;;;;13.00;99.90;;;;;;6153750;23;20308;-85
2022/10/17 04:08:11;;;;;;;;;;;13.00;99.90;;;;;;6153193;23;19925;-85
2022/10/17 04:10:37;;;;;;;;;;;13.00;99.90;;;;;;6153418;23;19920;-85
2022/10/17 04:13:05;;;;;;;;;;;12.90;99.90;;;;;;6177911;23;20397;-85
2022/10/17 04:15:32;;;;;;;;;;;12.90;99.90;;;;;;6153730;23;19948;-85
2022/10/17 04:17:58;;;;;;;;;;;12.90;99.90;;;;;;6153155;23;19920;-84
2022/10/17 04:20:25;;;;;;;;;;;12.90;99.90;;;;;;6154705;23;19924;-85
2022/10/17 04:22:52;;;;;;;;;;;12.90;99.90;;;;;;6155038;23;20248;-85
2022/10/17 04:25:18;;;;;;;;;;;12.80;99.90;;;;;;6152743;23;19924;-84
2022/10/17 04:27:45;;;;;;;;;;;12.80;99.90;;;;;;6178537;23;20353;-84
2022/10/17 04:30:12;;;;;;;;;;;12.80;99.90;;;;;;6152939;23;19921;-84
2022/10/17 04:32:38;;;;;;;;;;;12.80;99.90;;;;;;6155086;23;19996;-84
2022/10/17 04:35:05;;;;;;;;;;;12.80;99.90;;;;;;6152537;23;20493;-84
2022/10/17 04:37:32;;;;;;;;;;;12.70;99.90;;;;;;6153651;23;19992;-85
2022/10/17 04:39:59;;;;;;;;;;;12.70;99.90;;;;;;6152290;23;20337;-84
2022/10/17 04:42:27;;;;;;;;;;;12.70;99.90;;;;;;6154215;23;19996;-84
2022/10/17 04:44:54;;;;;;;;;;;12.60;99.90;;;;;;6154578;23;19920;-84
2022/10/17 04:47:21;;;;;;;;;;;12.60;99.90;;;;;;6155068;23;19925;-85
2022/10/17 04:49:48;;;;;;;;;;;12.60;99.90;;;;;;6153679;23;19920;-84
2022/10/17 04:52:14;;;;;;;;;;;12.50;99.90;;;;;;6154649;23;19960;-84
2022/10/17 04:54:41;;;;;;;;;;;12.50;99.90;;;;;;6153332;23;19927;-85
2022/10/17 04:57:08;;;;;;;;;;;12.50;99.90;;;;;;6152587;23;19927;-85
2022/10/17 04:59:35;;;;;;;;;;;12.50;99.90;;;;;;6153355;23;19927;-84
2022/10/17 05:02:02;;;;;;;;;;;12.50;99.90;;;;;;6152470;23;20235;-85
2022/10/17 05:04:28;;;;;;;;;;;12.50;99.90;;;;;;6152489;23;19983;-85
2022/10/17 05:06:55;;;;;;;;;;;12.50;99.90;;;;;;6153561;23;19927;-84
2022/10/17 05:09:22;;;;;;;;;;;12.50;99.90;;;;;;6152305;23;20001;-84
2022/10/17 05:11:51;;;;;;;;;;;12.40;99.90;;;;;;6153582;23;19927;-84
2022/10/17 05:14:17;;;;;;;;;;;12.40;99.90;;;;;;6152516;23;19995;-84
2022/10/17 05:16:44;;;;;;;;;;;12.40;99.90;;;;;;6153826;23;20222;-86
2022/10/17 05:19:11;;;;;;;;;;;12.40;99.90;;;;;;6152728;23;19999;-84
2022/10/17 05:21:38;;;;;;;;;;;12.30;99.90;;;;;;6153395;23;20261;-85
2022/10/17 05:24:05;;;;;;;;;;;12.30;99.90;;;;;;6153755;23;19971;-85
2022/10/17 05:26:32;;;;;;;;;;;12.30;99.90;;;;;;6153616;23;20364;-84
2022/10/17 05:29:01;;;;;;;;;;;12.30;99.90;;;;;;6152650;23;19944;-84
2022/10/17 05:31:28;;;;;;;;;;;12.20;99.90;;;;;;6154784;23;19921;-84
2022/10/17 05:33:59;;;;;;;;;;;12.10;99.90;;;;;;6153340;23;19925;-84
2022/10/17 05:36:25;;;;;;;;;;;12.10;99.90;;;;;;6152030;23;20427;-85
2022/10/17 05:38:52;;;;;;;;;;;12.10;99.90;;;;;;6152698;23;19968;-85
2022/10/17 05:41:19;;;;;;;;;;;12.10;99.90;;;;;;6152730;23;19940;-85
2022/10/17 05:43:46;;;;;;;;;;;12.10;99.90;;;;;;6178986;23;20338;-84
2022/10/17 05:46:12;;;;;;;;;;;12.10;99.90;;;;;;6154385;23;19991;-86
2022/10/17 05:48:39;;;;;;;;;;;12.10;99.90;;;;;;6154942;23;19951;-85
2022/10/17 05:51:07;;;;;;;;;;;12.00;99.90;;;;;;6154118;23;19963;-86
2022/10/17 05:53:35;;;;;;;;;;;12.00;99.90;;;;;;6155335;23;19948;-86
2022/10/17 05:56:04;;;;;;;;;;;12.00;99.90;;;;;;6154391;23;19952;-84
2022/10/17 05:58:32;;;;;;;;;;;12.00;99.90;;;;;;6154929;23;20253;-86
2022/10/17 06:01:15;;;;;;;;;;;12.00;99.90;;;;;;6153986;23;19927;-85
2022/10/17 06:03:42;;;;;;;;;;;12.00;99.90;;;;;;6154808;23;20234;-86
2022/10/17 06:06:11;;;;;;;;;;;11.90;99.90;;;;;;6154292;23;20327;-86
2022/10/17 06:08:37;;;;;;;;;;;11.90;99.90;;;;;;6154941;23;20268;-86
2022/10/17 06:11:04;;;;;;;;;;;11.90;99.90;;;;;;6155591;23;19944;-86
2022/10/17 06:13:35;;;;;;;;;;;11.90;99.90;;;;;;6154759;23;19924;-86
2022/10/17 06:16:02;;;;;;;;;;;11.90;99.90;;;;;;6154801;23;20257;-85
2022/10/17 06:18:29;;;;;;;;;;;11.90;99.90;;;;;;6153837;23;19932;-86
2022/10/17 06:21:03;;;;;;;;;;;11.90;99.90;;;;;;6156353;23;20364;-85
2022/10/17 06:23:30;;;;;;;;;;;11.90;99.90;;;;;;6154576;23;19945;-85
2022/10/17 06:25:57;;;;;;;;;;;11.90;99.90;;;;;;6179401;23;19996;-86
2022/10/17 06:28:24;;;;;;;;;;;12.00;99.90;;;;;;6153026;23;20015;-86
2022/10/17 06:30:50;;;;;;;;;;;12.00;99.90;;;;;;6154606;23;19929;-85
2022/10/17 06:33:17;;;;;;;;;;;12.00;99.90;;;;;;6153520;23;20003;-85
2022/10/17 06:35:49;;;;;;;;;;;12.10;99.90;;;;;;6154186;23;19952;-86
2022/10/17 06:38:16;;;;;;;;;;;12.10;99.90;;;;;;6153991;23;19924;-86
2022/10/17 06:40:42;;;;;;;;;;;12.20;99.90;;;;;;6154536;23;20024;-85
2022/10/17 06:43:09;;;;;;;;;;;12.20;99.90;;;;;;6153937;23;19995;-86
2022/10/17 06:45:37;;;;;;;;;;;12.20;99.90;;;;;;6154075;23;19925;-86
2022/10/17 06:48:04;;;;;;;;;;;12.30;99.90;;;;;;6153556;23;20007;-85
2022/10/17 06:50:31;;;;;;;;;;;12.40;99.90;;;;;;6152447;23;19925;-86
2022/10/17 06:52:57;;;;;;;;;;;12.50;99.90;;;;;;6153868;23;20341;-86
2022/10/17 06:55:24;;;;;;;;;;;12.50;99.90;;;;;;6153397;23;20304;-85
2022/10/17 06:57:53;;;;;;;;;;;12.60;99.90;;;;;;6153567;23;19952;-86
2022/10/17 07:00:20;;;;;;;;;;;12.70;99.90;;;;;;6152675;23;19951;-85
2022/10/17 07:02:46;;;;;;;;;;;12.80;99.90;;;;;;6152966;23;19920;-86
2022/10/17 07:05:13;;;;;;;;;;;12.90;99.90;;;;;;6152295;23;19920;-85
2022/10/17 07:07:40;;;;;;;;;;;13.00;99.90;;;;;;6153522;23;19920;-86
2022/10/17 07:10:11;;;;;;;;;;;13.00;99.90;;;;;;6176986;23;20011;-86
2022/10/17 07:12:37;;;;;;;;;;;13.10;99.90;;;;;;6153882;23;19944;-85
2022/10/17 07:15:04;;;;;;;;;;;13.20;99.90;;;;;;6153982;23;19927;-87
2022/10/17 07:17:31;;;;;;;;;;;13.40;99.90;;;;;;6152359;23;19995;-86
2022/10/17 07:19:58;;;;;;;;;;;13.50;99.90;;;;;;6153156;23;19924;-87
2022/10/17 07:22:24;;;;;;;;;;;13.60;99.90;;;;;;6152575;23;19927;-85
2022/10/17 07:42:42;;;;;;;;;;;14.60;99.90;;;;;;6157263;23;19967;-84
2022/10/17 07:45:10;;;;;;;;;;;14.70;99.90;;;;;;6157535;23;19920;-82
2022/10/17 07:47:36;;;;;;;;;;;14.80;99.90;;;;;;6156468;23;19921;-85
2022/10/17 07:50:04;;;;;;;;;;;14.90;99.90;;;;;;6160689;23;19983;-84
2022/10/17 07:52:31;;;;;;;;;;;15.00;99.90;;;;;;6157885;23;19944;-82
2022/10/17 08:16:26;;;;;;;;;;;16.00;99.90;;;;;;6126679;23;20349;-80
2022/10/17 08:18:53;;;;;;;;;;;16.00;99.90;;;;;;6124186;23;19960;-80
2022/10/17 08:21:19;;;;;;;;;;;16.20;99.90;;;;;;6099196;23;19921;-80
2022/10/17 08:23:46;;;;;;;;;;;16.30;99.90;;;;;;6099809;23;19927;-79
2022/10/17 08:26:16;;;;;;;;;;;16.50;99.90;;;;;;6102688;23;19920;-79
2022/10/17 08:28:42;;;;;;;;;;;16.70;99.90;;;;;;6111408;23;19959;-80
2022/10/17 08:31:19;;;;;;;;;;;16.90;99.90;;;;;;6104986;23;19921;-79
2022/10/17 08:33:46;;;;;;;;;;;17.10;99.90;;;;;;6100270;23;19921;-80
2022/10/17 08:36:15;;;;;;;;;;;17.30;99.90;;;;;;6105077;23;20003;-79
2022/10/17 09:38:42;;;;;;;;;;;20.20;80.50;;;;;;6126861;23;19943;-82
2022/10/17 09:41:20;;;;;;;;;;;20.20;76.70;;;;;;6125194;23;19927;-82
2022/10/17 09:44:09;;;;;;;;;;;20.20;78.50;;;;;;6106276;23;19921;-82
2022/10/17 09:46:37;;;;;;;;;;;20.40;81.10;;;;;;6101605;23;20253;-83
2022/10/17 09:49:09;;;;;;;;;;;20.50;76.00;;;;;;6100573;23;19927;-83
2022/10/17 09:51:40;;;;;;;;;;;20.60;74.60;;;;;;6103301;23;19944;-82
2022/10/17 09:54:27;;;;;;;;;;;20.70;75.10;;;;;;6102982;23;19955;-82
2022/10/17 09:57:20;;;;;;;;;;;20.80;75.50;;;;;;6127531;23;19993;-83
2022/10/17 09:59:54;;;;;;;;;;;20.90;76.30;;;;;;6100296;23;19949;-83
2022/10/17 10:02:22;;;;;;;;;;;21.10;75.90;;;;;;6103520;23;19948;-82
2022/10/17 10:04:52;;;;;;;;;;;21.30;75.80;;;;;;6103505;23;19964;-82
2022/10/17 10:07:38;;;;;;;;;;;21.50;74.70;;;;;;6105058;23;19928;-82
2022/10/17 10:10:07;;;;;;;;;;;21.50;72.20;;;;;;6103133;23;19921;-82
2022/10/17 10:12:36;;;;;;;;;;;21.70;71.20;;;;;;6103375;23;19924;-82
2022/10/17 10:15:24;;;;;;;;;;;21.70;72.10;;;;;;6104359;23;20007;-82
2022/10/17 10:17:50;;;;;;;;;;;21.50;68.10;;;;;;6105359;23;19925;-82
2022/10/17 10:20:29;;;;;;;;;;;21.30;70.90;;;;;;6106533;23;19972;-82
2022/10/17 10:23:04;;;;;;;;;;;21.50;70.40;;;;;;6105901;23;20016;-82
2022/10/17 10:25:31;;;;;;;;;;;21.80;73.00;;;;;;6104692;23;19925;-82
2022/10/17 10:28:08;;;;;;;;;;;22.10;69.60;;;;;;6107907;23;19921;-82
2022/10/17 10:30:35;;;;;;;;;;;21.90;68.30;;;;;;6112197;23;19961;-82
2022/10/17 10:33:10;;;;;;;;;;;22.10;68.30;;;;;;6108180;23;20802;-83
2022/10/17 10:35:37;;;;;;;;;;;22.00;65.50;;;;;;6101033;23;19925;-83
2022/10/17 10:38:27;;;;;;;;;;;21.80;66.30;;;;;;6136611;23;19921;-82
2022/10/17 10:40:55;;;;;;;;;;;21.70;67.30;;;;;;6156350;23;19931;-83
2022/10/17 10:43:33;;;;;;;;;;;21.80;69.50;;;;;;6146660;23;19988;-81
2022/10/17 10:46:14;;;;;;;;;;;21.80;67.40;;;;;;6152976;23;19920;-81
2022/10/17 10:48:53;;;;;;;;;;;21.90;67.90;;;;;;6158758;23;19921;-81
2022/10/17 10:51:31;;;;;;;;;;;22.00;66.30;;;;;;6154285;23;19931;-81
2022/10/17 10:54:05;;;;;;;;;;;21.90;67.60;;;;;;6162305;23;20349;-82
2022/10/17 10:56:53;;;;;;;;;;;21.90;68.90;;;;;;6157553;23;20253;-81
2022/10/17 10:59:29;;;;;;;;;;;21.90;67.50;;;;;;6153351;23;19951;-81
2022/10/17 11:01:58;;;;;;;;;;;21.90;69.60;;;;;;6156586;23;19924;-82
2022/10/17 11:04:26;;;;;;;;;;;21.80;69.60;;;;;;6154537;23;19967;-81
2022/10/17 11:06:57;;;;;;;;;;;21.80;69.00;;;;;;6156014;23;20004;-81
2022/10/17 11:09:42;;;;;;;;;;;21.80;68.70;;;;;;6157882;23;19920;-81
2022/10/17 11:12:17;;;;;;;;;;;22.00;70.50;;;;;;6155504;23;19924;-81
2022/10/17 11:14:52;;;;;;;;;;;22.30;70.80;;;;;;6155682;23;19930;-81
2022/10/17 11:17:22;;;;;;;;;;;22.70;70.10;;;;;;6155525;23;20342;-81
2022/10/17 11:19:55;;;;;;;;;;;22.70;67.40;;;;;;6160372;23;20003;-82
2022/10/17 11:22:41;;;;;;;;;;;22.70;65.60;;;;;;6163505;23;19921;-81
2022/10/17 11:25:11;;;;;;;;;;;22.40;66.30;;;;;;6157097;23;19920;-80
2022/10/17 11:27:37;;;;;;;;;;;22.30;67.70;;;;;;6159781;23;19987;-80
2022/10/17 11:30:05;;;;;;;;;;;22.20;67.30;;;;;;6162080;23;19928;-80
2022/10/17 11:32:40;;;;;;;;;;;22.60;69.30;;;;;;6164863;23;19925;-82
2022/10/17 11:35:07;;;;;;;;;;;22.80;66.30;;;;;;6161400;23;19964;-81
2022/10/17 11:37:36;;;;;;;;;;;23.00;66.40;;;;;;6162437;23;19959;-81
2022/10/17 11:40:18;;;;;;;;;;;23.10;63.80;;;;;;6173158;23;19925;-82
2022/10/17 11:42:57;;;;;;;;;;;23.20;65.00;;;;;;6172786;23;19920;-82
2022/10/17 11:45:25;;;;;;;;;;;23.40;64.60;;;;;;6155945;23;19920;-82
2022/10/17 11:47:54;;;;;;;;;;;23.60;63.80;;;;;;6152848;23;19928;-81
2022/10/17 11:50:25;;;;;;;;;;;23.50;62.20;;;;;;6153314;23;19925;-81
2022/10/17 11:53:13;;;;;;;;;;;23.80;62.50;;;;;;6153889;23;19931;-81
2022/10/17 11:55:40;;;;;;;;;;;23.70;61.20;;;;;;6166899;23;19920;-81
2022/10/17 11:58:23;;;;;;;;;;;23.50;61.10;;;;;;6152676;23;19956;-82
2022/10/17 12:01:01;;;;;;;;;;;23.20;64.10;;;;;;6154337;23;19932;-80
2022/10/17 12:03:48;;;;;;;;;;;23.20;63.40;;;;;;6154690;23;19995;-81
2022/10/17 12:06:19;;;;;;;;;;;23.20;63.50;;;;;;6122475;23;19920;-82
2022/10/17 12:08:57;;;;;;;;;;;23.10;62.40;;;;;;6153086;23;19992;-83
2022/10/17 12:11:24;;;;;;;;;;;23.10;64.40;;;;;;6153165;23;20302;-81
2022/10/17 12:13:52;;;;;;;;;;;23.00;63.00;;;;;;6153101;23;19921;-82
2022/10/17 12:16:18;;;;;;;;;;;23.00;63.90;;;;;;6152911;23;20238;-82
2022/10/17 12:18:46;;;;;;;;;;;23.00;64.30;;;;;;6155548;23;19927;-82
2022/10/17 12:21:13;;;;;;;;;;;23.00;63.50;;;;;;6152882;23;19992;-81
2022/10/17 12:23:50;;;;;;;;;;;23.00;64.10;;;;;;6155050;23;19920;-81
2022/10/17 12:26:24;;;;;;;;;;;22.90;64.40;;;;;;6154525;23;19927;-81
2022/10/17 12:28:51;;;;;;;;;;;22.90;64.50;;;;;;6156291;23;19948;-81
2022/10/17 12:31:20;;;;;;;;;;;22.90;63.80;;;;;;6152651;23;20301;-81
2022/10/17 12:33:48;;;;;;;;;;;22.80;63.30;;;;;;6150819;23;19999;-81
2022/10/17 12:36:17;;;;;;;;;;;22.50;64.30;;;;;;6153105;23;19999;-81
2022/10/17 12:38:45;;;;;;;;;;;22.40;65.30;;;;;;6140249;23;19927;-82
2022/10/17 12:41:16;;;;;;;;;;;22.30;66.00;;;;;;6156239;23;20428;-82
2022/10/17 12:43:44;;;;;;;;;;;22.30;65.40;;;;;;6130146;23;19948;-82
2022/10/17 12:46:11;;;;;;;;;;;22.30;67.30;;;;;;6128106;23;19924;-81
2022/10/17 12:48:38;;;;;;;;;;;22.30;66.00;;;;;;6128253;23;19988;-81
2022/10/17 12:51:05;;;;;;;;;;;22.40;67.20;;;;;;6128537;23;19921;-81
2022/10/17 12:53:59;;;;;;;;;;;22.30;66.00;;;;;;6132276;23;19920;-81
2022/10/17 12:56:30;;;;;;;;;;;22.30;67.30;;;;;;6126959;23;20007;-82
2022/10/17 12:58:58;;;;;;;;;;;22.40;67.70;;;;;;6128339;23;20338;-82
2022/10/17 13:01:29;;;;;;;;;;;22.40;67.80;;;;;;6153083;23;20245;-82
2022/10/17 13:03:58;;;;;;;;;;;22.40;68.00;;;;;;6128074;23;19924;-82
2022/10/17 13:06:26;;;;;;;;;;;22.40;68.00;;;;;;6127217;23;20245;-82
2022/10/17 13:08:58;;;;;;;;;;;22.40;66.80;;;;;;6127950;23;20257;-81
2022/10/17 13:11:30;;;;;;;;;;;22.20;65.70;;;;;;6128327;23;19927;-81
2022/10/17 13:13:59;;;;;;;;;;;22.30;67.20;;;;;;6127718;23;20246;-81
2022/10/17 13:16:26;;;;;;;;;;;22.40;67.90;;;;;;6127251;23;19947;-81
2022/10/17 13:18:53;;;;;;;;;;;22.50;67.50;;;;;;6128070;23;20324;-81
2022/10/17 13:21:20;;;;;;;;;;;22.40;68.50;;;;;;6127108;23;20003;-81
2022/10/17 13:23:49;;;;;;;;;;;22.50;67.80;;;;;;6128779;23;19971;-81
2022/10/17 13:26:20;;;;;;;;;;;22.40;67.10;;;;;;6127389;23;19925;-82
2022/10/17 13:29:01;;;;;;;;;;;22.50;67.20;;;;;;6152915;23;19928;-81
2022/10/17 13:31:35;;;;;;;;;;;22.50;66.60;;;;;;6131190;23;20244;-81
2022/10/17 13:34:04;;;;;;;;;;;22.20;66.70;;;;;;6128796;23;19956;-82
2022/10/17 13:36:31;;;;;;;;;;;22.30;67.50;;;;;;6128335;23;19925;-81
2022/10/17 13:38:59;;;;;;;;;;;22.60;67.90;;;;;;6152734;23;19927;-81
2022/10/17 13:41:28;;;;;;;;;;;22.80;67.10;;;;;;6151610;23;20024;-81
2022/10/17 13:44:06;;;;;;;;;;;23.00;66.00;;;;;;6152394;23;19920;-81
2022/10/17 13:46:35;;;;;;;;;;;22.90;65.40;;;;;;6151959;23;20355;-80
2022/10/17 13:49:09;;;;;;;;;;;23.00;66.10;;;;;;6154241;23;19920;-82
2022/10/17 13:51:36;;;;;;;;;;;22.90;66.20;;;;;;6152262;23;20261;-83
2022/10/17 13:54:15;;;;;;;;;;;23.00;66.20;;;;;;6151854;23;19959;-81
2022/10/17 13:56:42;;;;;;;;;;;22.90;66.20;;;;;;6151989;23;19922;-81
2022/10/17 13:59:22;;;;;;;;;;;22.80;66.10;;;;;;6154593;23;19967;-81
2022/10/17 14:01:50;;;;;;;;;;;22.80;66.60;;;;;;6152418;23;19921;-81
2022/10/17 14:04:17;;;;;;;;;;;22.90;67.40;;;;;;6154676;23;20289;-81
2022/10/17 14:06:46;;;;;;;;;;;23.00;66.20;;;;;;6153831;23;20306;-81
2022/10/17 14:09:25;;;;;;;;;;;23.00;65.20;;;;;;6154558;23;19928;-82
2022/10/17 14:12:00;;;;;;;;;;;23.00;65.60;;;;;;6153608;23;19921;-81
2022/10/17 14:14:27;;;;;;;;;;;22.80;66.30;;;;;;6154112;23;19955;-80
2022/10/17 14:17:00;;;;;;;;;;;22.60;67.60;;;;;;6155475;23;19921;-80
2022/10/17 14:19:29;;;;;;;;;;;22.50;67.70;;;;;;6155428;23;19931;-81
2022/10/17 14:22:13;;;;;;;;;;;22.40;67.60;;;;;;6153527;23;19956;-81
2022/10/17 14:24:41;;;;;;;;;;;22.30;68.40;;;;;;6153246;23;19927;-81
2022/10/17 14:27:41;;;;;;;;;;;22.30;69.70;;;;;;6156037;23;20000;-81
2022/10/17 14:30:26;;;;;;;;;;;22.30;70.00;;;;;;6121537;23;19963;-80
2022/10/17 14:33:17;;;;;;;;;;;22.30;69.80;;;;;;6154729;23;19920;-81
2022/10/17 14:35:54;;;;;;;;;;;22.30;69.20;;;;;;6154588;23;20398;-80
2022/10/17 14:38:21;;;;;;;;;;;22.20;69.30;;;;;;6153487;23;19931;-83
2022/10/17 14:40:51;;;;;;;;;;;22.10;70.30;;;;;;6156427;23;19921;-80
2022/10/17 14:43:23;;;;;;;;;;;22.10;71.80;;;;;;6153215;23;20293;-80
2022/10/17 14:45:50;;;;;;;;;;;22.00;71.80;;;;;;6154231;23;20341;-80
2022/10/17 14:48:19;;;;;;;;;;;22.00;71.90;;;;;;6153339;23;19942;-80
2022/10/17 14:51:04;;;;;;;;;;;22.00;72.10;;;;;;6154369;23;20402;-81
2022/10/17 14:53:31;;;;;;;;;;;21.90;70.90;;;;;;6153603;23;20840;-80
2022/10/17 14:55:59;;;;;;;;;;;21.80;71.70;;;;;;6154315;23;19927;-83
2022/10/17 14:58:30;;;;;;;;;;;21.90;72.50;;;;;;6153368;23;19931;-83
2022/10/17 15:00:57;;;;;;;;;;;21.90;72.50;;;;;;6154301;23;20301;-82
2022/10/17 15:03:25;;;;;;;;;;;21.80;71.40;;;;;;6153319;23;19924;-83
2022/10/17 15:05:53;;;;;;;;;;;21.70;72.40;;;;;;6153609;23;19921;-83
2022/10/17 15:08:21;;;;;;;;;;;21.70;73.10;;;;;;6152744;23;19924;-83
2022/10/17 15:10:49;;;;;;;;;;;21.70;72.60;;;;;;6141025;23;19970;-83
2022/10/17 15:13:16;;;;;;;;;;;21.70;72.40;;;;;;6153085;23;20290;-83
2022/10/17 15:16:20;;;;;;;;;;;21.70;71.80;;;;;;6153515;23;19920;-83
2022/10/17 15:18:47;;;;;;;;;;;21.80;71.50;;;;;;6152886;23;19920;-83
2022/10/17 15:21:15;;;;;;;;;;;21.80;72.40;;;;;;6153252;23;19943;-83
2022/10/17 15:24:03;;;;;;;;;;;21.80;71.50;;;;;;6152715;23;20003;-83
2022/10/17 15:26:31;;;;;;;;;;;21.80;72.70;;;;;;6153046;23;20246;-83
2022/10/17 15:28:58;;;;;;;;;;;21.80;73.00;;;;;;6140278;23;19931;-84
2022/10/17 15:31:26;;;;;;;;;;;21.70;72.80;;;;;;6153381;23;19920;-83
2022/10/17 15:33:53;;;;;;;;;;;21.70;71.70;;;;;;6152996;23;19959;-83
2022/10/17 15:36:20;;;;;;;;;;;21.70;73.40;;;;;;6153343;23;19920;-83
2022/10/17 15:38:47;;;;;;;;;;;21.60;73.30;;;;;;6128106;23;20249;-83
2022/10/17 15:41:14;;;;;;;;;;;21.60;73.10;;;;;;6128998;23;19927;-83
2022/10/17 15:43:41;;;;;;;;;;;21.50;73.90;;;;;;6129141;23;19990;-83
2022/10/17 15:46:17;;;;;;;;;;;21.50;74.80;;;;;;6128439;23;19948;-84
2022/10/17 15:48:43;;;;;;;;;;;21.50;75.60;;;;;;6150901;23;19956;-83
2022/10/17 15:51:13;;;;;;;;;;;21.40;76.60;;;;;;6128901;23;19975;-83
2022/10/17 15:53:40;;;;;;;;;;;21.40;76.50;;;;;;6128883;23;19920;-83
2022/10/17 15:56:09;;;;;;;;;;;21.30;77.30;;;;;;6126407;23;19995;-83
2022/10/17 15:58:37;;;;;;;;;;;21.30;78.00;;;;;;6154290;23;19924;-84
2022/10/17 16:01:05;;;;;;;;;;;21.20;78.50;;;;;;6127485;23;19967;-83
2022/10/17 16:03:32;;;;;;;;;;;21.10;79.10;;;;;;6128906;23;20349;-83
2022/10/17 16:05:59;;;;;;;;;;;21.10;80.10;;;;;;6127806;23;19920;-83
2022/10/17 16:08:27;;;;;;;;;;;21.00;81.30;;;;;;6150938;23;19952;-83
2022/10/17 16:10:53;;;;;;;;;;;21.00;82.00;;;;;;6112970;23;20313;-83
2022/10/17 16:13:23;;;;;;;;;;;21.00;82.70;;;;;;6106333;23;20338;-81
2022/10/17 16:15:50;;;;;;;;;;;20.90;82.90;;;;;;6116998;23;19940;-83